createdAt,value
2022-12-09T00:01:33.703Z,32.55
2022-12-09T00:04:01.633Z,31.55
2022-12-09T00:06:30.987Z,33.45
2022-12-09T00:08:59.086Z,37.08
2022-12-09T00:11:27.816Z,34.60
2022-12-09T00:13:57.847Z,34.72
2022-12-09T00:16:26.716Z,29.85
2022-12-09T00:18:56.646Z,31.45
2022-12-09T00:21:33.188Z,33.15
2022-12-09T00:24:04.459Z,32.47
2022-12-09T00:26:33.573Z,33.45
2022-12-09T00:29:02.183Z,39.28
2022-12-09T00:31:33.356Z,35.63
2022-12-09T00:34:04.492Z,33.90
2022-12-09T00:36:33.373Z,33.92
2022-12-09T00:39:02.013Z,35.80
2022-12-09T00:41:31.426Z,34.70
2022-12-09T00:43:59.886Z,35.00
2022-12-09T00:46:28.258Z,35.10
2022-12-09T00:48:56.315Z,35.03
2022-12-09T00:51:25.254Z,36.35
2022-12-09T00:53:55.930Z,31.08
2022-12-09T00:56:26.426Z,36.60
2022-12-09T00:58:55.440Z,37.08
2022-12-09T01:01:24.488Z,36.35
2022-12-09T01:03:52.709Z,37.25
2022-12-09T01:06:23.841Z,35.90
2022-12-09T01:08:52.330Z,34.60
2022-12-09T01:11:25.419Z,38.25
2022-12-09T01:13:54.166Z,32.70
2022-12-09T01:16:26.709Z,37.22
2022-12-09T01:18:57.504Z,34.28
2022-12-09T01:21:29.598Z,33.58
2022-12-09T01:23:57.599Z,37.90
2022-12-09T01:26:27.283Z,33.42
2022-12-09T01:28:57.535Z,41.30
2022-12-09T01:31:26.643Z,34.63
2022-12-09T01:33:56.393Z,33.60
2022-12-09T01:36:28.051Z,33.80
2022-12-09T01:38:58.297Z,31.48
2022-12-09T01:41:28.738Z,28.83
2022-12-09T01:44:19.789Z,29.98
2022-12-09T01:46:48.397Z,27.70
2022-12-09T01:49:38.711Z,30.00
2022-12-09T01:52:14.153Z,30.95
2022-12-09T01:54:45.986Z,28.05
2022-12-09T01:57:15.956Z,33.33
2022-12-09T01:59:45.548Z,25.60
2022-12-09T02:02:17.748Z,25.52
2022-12-09T02:04:48.927Z,25.95
2022-12-09T02:07:19.792Z,26.77
2022-12-09T02:09:53.221Z,26.08
2022-12-09T02:12:33.727Z,24.15
2022-12-09T02:15:33.259Z,23.27
2022-12-09T02:18:17.983Z,22.65
2022-12-09T02:20:56.786Z,26.38
2022-12-09T02:23:51.033Z,24.25
2022-12-09T02:26:36.509Z,26.65
2022-12-09T02:29:31.197Z,23.33
2022-12-09T02:32:17.947Z,22.98
2022-12-09T02:35:05.866Z,24.23
2022-12-09T02:37:51.645Z,25.55
2022-12-09T02:40:29.148Z,26.80
2022-12-09T02:42:58.451Z,23.83
2022-12-09T02:45:30.637Z,23.73
2022-12-09T02:48:02.744Z,27.70
2022-12-09T02:50:36.167Z,25.90
2022-12-09T02:53:08.056Z,25.73
2022-12-09T02:55:37.596Z,25.70
2022-12-09T02:58:05.499Z,28.13
2022-12-09T03:00:39.509Z,25.07
2022-12-09T03:03:13.299Z,26.40
2022-12-09T03:05:49.555Z,28.83
2022-12-09T03:08:23.478Z,25.37
2022-12-09T03:11:06.338Z,29.47
2022-12-09T03:13:41.170Z,27.10
2022-12-09T03:16:20.945Z,28.33
2022-12-09T03:18:55.505Z,29.10
2022-12-09T03:21:26.438Z,30.10
2022-12-09T03:23:56.909Z,30.80
2022-12-09T03:26:28.541Z,32.28
2022-12-09T03:29:09.258Z,32.05
2022-12-09T03:31:39.627Z,31.58
2022-12-09T03:34:10.961Z,33.95
2022-12-09T03:36:41.501Z,29.42
2022-12-09T03:39:16.384Z,29.10
2022-12-09T03:41:53.571Z,32.58
2022-12-09T03:44:51.117Z,27.75
2022-12-09T03:47:19.085Z,29.00
2022-12-09T03:49:47.652Z,28.15
2022-12-09T03:52:51.072Z,28.23
2022-12-09T03:55:44.440Z,29.50
2022-12-09T03:58:14.395Z,29.83
2022-12-09T04:00:42.922Z,31.08
2022-12-09T04:03:14.799Z,30.02
2022-12-09T04:05:43.289Z,29.75
2022-12-09T04:08:11.606Z,31.58
2022-12-09T04:10:39.581Z,26.20
2022-12-09T04:13:07.431Z,25.65
2022-12-09T04:15:35.339Z,31.35
2022-12-09T04:18:03.263Z,27.35
2022-12-09T04:20:31.472Z,28.00
2022-12-09T04:22:59.571Z,26.63
2022-12-09T04:25:27.544Z,25.25
2022-12-09T04:27:55.787Z,27.48
2022-12-09T04:30:23.654Z,29.75
2022-12-09T04:32:51.786Z,25.88
2022-12-09T04:35:19.867Z,28.93
2022-12-09T04:37:48.605Z,26.60
2022-12-09T04:40:22.823Z,25.15
2022-12-09T04:42:51.988Z,26.42
2022-12-09T04:45:20.297Z,28.17
2022-12-09T04:47:48.586Z,27.60
2022-12-09T04:50:17.259Z,25.20
2022-12-09T04:52:45.536Z,29.40
2022-12-09T04:55:14.258Z,27.97
2022-12-09T04:57:43.044Z,26.13
2022-12-09T05:00:12.341Z,27.57
2022-12-09T05:02:40.943Z,28.03
2022-12-09T05:05:09.807Z,25.57
2022-12-09T05:07:38.027Z,28.50
2022-12-09T05:10:07.127Z,23.63
2022-12-09T05:12:36.064Z,24.07
2022-12-09T05:15:04.702Z,27.57
2022-12-09T05:17:32.614Z,26.07
2022-12-09T05:20:00.981Z,27.93
2022-12-09T05:22:29.293Z,27.60
2022-12-09T05:24:57.672Z,27.37
2022-12-09T05:27:25.569Z,25.20
2022-12-09T05:29:53.766Z,24.93
2022-12-09T05:32:21.677Z,26.20
2022-12-09T05:34:49.666Z,27.13
2022-12-09T05:37:17.767Z,29.40
2022-12-09T05:39:45.910Z,27.50
2022-12-09T05:42:13.865Z,27.23
2022-12-09T05:44:41.806Z,32.07
2022-12-09T05:47:09.995Z,30.80
2022-12-09T05:49:39.049Z,29.90
2022-12-09T05:52:07.374Z,32.13
2022-12-09T05:54:35.380Z,31.73
2022-12-09T05:57:04.467Z,29.83
2022-12-09T05:59:32.809Z,31.60
2022-12-09T06:02:03.747Z,31.80
2022-12-09T06:04:36.797Z,32.63
2022-12-09T06:07:05.236Z,31.07
2022-12-09T06:09:33.893Z,26.83
2022-12-09T06:12:03.021Z,28.73
2022-12-09T06:14:31.401Z,31.93
2022-12-09T06:16:59.585Z,27.73
2022-12-09T06:19:27.731Z,32.03
2022-12-09T06:21:55.979Z,26.60
2022-12-09T06:24:24.034Z,28.47
2022-12-09T06:26:54.688Z,25.87
2022-12-09T06:29:23.066Z,31.57
2022-12-09T06:31:51.029Z,28.50
2022-12-09T06:34:19.545Z,30.73
2022-12-09T06:36:47.562Z,31.67
2022-12-09T06:39:15.991Z,30.63
2022-12-09T06:41:44.450Z,29.50
2022-12-09T06:44:17.193Z,31.70
2022-12-09T06:46:51.261Z,27.87
2022-12-09T06:49:19.557Z,26.77
2022-12-09T06:51:48.012Z,26.90
2022-12-09T06:54:16.637Z,29.67
2022-12-09T06:56:44.789Z,27.60
2022-12-09T06:59:13.143Z,28.53
2022-12-09T07:01:41.699Z,30.23
2022-12-09T07:04:13.653Z,28.47
2022-12-09T07:06:44.336Z,30.87
2022-12-09T07:09:21.209Z,29.70
2022-12-09T07:11:50.275Z,31.00
2022-12-09T07:14:22.102Z,30.97
2022-12-09T07:16:50.504Z,36.50
2022-12-09T07:19:21.339Z,30.23
2022-12-09T07:21:50.884Z,34.50
2022-12-09T07:24:20.300Z,28.70
2022-12-09T07:26:49.392Z,26.87
2022-12-09T07:29:18.750Z,27.73
2022-12-09T07:31:48.721Z,29.57
2022-12-09T07:34:17.876Z,33.50
2022-12-09T07:36:47.355Z,28.40
2022-12-09T07:39:18.560Z,29.47
2022-12-09T07:41:48.407Z,32.47
2022-12-09T07:44:16.768Z,31.40
2022-12-09T07:46:45.004Z,29.93
2022-12-09T07:49:14.327Z,30.97
2022-12-09T07:51:43.298Z,37.47
2022-12-09T07:54:17.067Z,35.23
2022-12-09T07:56:45.677Z,32.33
2022-12-09T07:59:15.344Z,35.87
2022-12-09T08:01:45.375Z,32.10
2022-12-09T08:04:13.869Z,41.30
2022-12-09T08:06:42.739Z,38.13
2022-12-09T08:09:13.582Z,34.37
2022-12-09T08:11:42.515Z,36.23
2022-12-09T08:14:13.320Z,37.07
2022-12-09T08:16:43.442Z,37.27
2022-12-09T08:19:13.456Z,41.03
2022-12-09T08:21:42.393Z,34.87
2022-12-09T08:24:12.867Z,30.90
2022-12-09T08:26:42.044Z,36.17
2022-12-09T08:29:13.040Z,33.13
2022-12-09T08:31:43.656Z,33.30
2022-12-09T08:34:13.150Z,36.97
2022-12-09T08:36:42.438Z,40.37
2022-12-09T08:39:12.409Z,38.03
2022-12-09T08:41:41.173Z,35.40
2022-12-09T08:44:17.440Z,34.63
2022-12-09T08:46:49.266Z,37.47
2022-12-09T08:49:20.025Z,33.77
2022-12-09T08:51:50.309Z,35.57
2022-12-09T08:54:19.691Z,32.50
2022-12-09T08:56:50.066Z,37.47
2022-12-09T08:59:18.812Z,35.40
2022-12-09T09:01:48.474Z,39.37
2022-12-09T09:04:22.831Z,38.10
2022-12-09T09:06:52.666Z,42.17
2022-12-09T09:09:22.556Z,38.13
2022-12-09T09:11:51.292Z,40.17
2022-12-09T09:14:20.061Z,38.20
2022-12-09T09:16:48.429Z,39.57
2022-12-09T09:19:20.630Z,37.37
2022-12-09T09:21:49.872Z,34.87
2022-12-09T09:24:20.838Z,40.30
2022-12-09T09:26:51.719Z,38.33
2022-12-09T09:29:22.141Z,39.43
2022-12-09T09:31:56.207Z,42.00
2022-12-09T09:34:27.034Z,37.42
2022-12-09T09:36:56.670Z,33.40
2022-12-09T09:39:25.653Z,38.23
2022-12-09T09:42:08.722Z,39.50
2022-12-09T09:44:43.388Z,37.03
2022-12-09T09:47:40.081Z,35.40
2022-12-09T09:50:41.880Z,37.77
2022-12-09T09:53:27.531Z,35.53
2022-12-09T09:56:07.202Z,33.77
2022-12-09T09:59:12.105Z,33.53
2022-12-09T10:01:40.846Z,36.60
2022-12-09T10:04:37.838Z,35.70
2022-12-09T10:07:42.229Z,30.10
2022-12-09T10:10:34.726Z,29.20
2022-12-09T10:13:44.175Z,32.23
2022-12-09T10:16:31.317Z,34.47
2022-12-09T10:19:08.909Z,32.00
2022-12-09T10:21:41.100Z,28.70
2022-12-09T10:24:24.073Z,25.60
2022-12-09T10:27:38.344Z,32.17
2022-12-09T10:30:16.520Z,35.37
2022-12-09T10:32:45.860Z,30.90
2022-12-09T10:35:20.662Z,33.10
2022-12-09T10:40:23.931Z,29.33
2022-12-09T10:43:14.534Z,34.13
2022-12-09T10:46:17.434Z,28.63
2022-12-09T10:48:56.133Z,33.20
2022-12-09T10:51:34.724Z,31.47
2022-12-09T10:54:41.700Z,25.10
2022-12-09T10:57:13.547Z,27.43
2022-12-09T10:59:58.704Z,30.50
2022-12-09T11:02:28.735Z,35.10
2022-12-09T11:05:17.247Z,30.25
2022-12-09T11:07:50.132Z,28.20
2022-12-09T11:10:22.336Z,30.08
2022-12-09T11:12:53.376Z,29.85
2022-12-09T11:15:54.419Z,29.05
2022-12-09T11:18:32.958Z,23.90
2022-12-09T11:21:04.900Z,25.05
2022-12-09T11:23:36.676Z,26.58
2022-12-09T11:26:07.721Z,24.85
2022-12-09T11:28:39.254Z,25.95
2022-12-09T11:34:18.138Z,24.17
2022-12-09T11:36:49.993Z,22.00
2022-12-09T11:39:27.006Z,24.98
2022-12-09T11:42:17.673Z,23.63
2022-12-09T11:45:06.662Z,24.17
2022-12-09T11:50:31.725Z,21.17
2022-12-09T11:53:11.841Z,21.17
2022-12-09T11:55:47.213Z,24.20
2022-12-09T11:58:20.308Z,22.27
2022-12-09T12:01:03.860Z,24.70
2022-12-09T12:03:48.682Z,23.48
2022-12-09T12:06:23.828Z,20.27
2022-12-09T12:11:40.673Z,20.83
2022-12-09T12:14:17.525Z,19.50
2022-12-09T12:17:16.489Z,20.13
2022-12-09T12:19:49.769Z,22.42
2022-12-09T12:22:43.732Z,20.08
2022-12-09T12:25:21.177Z,23.27
2022-12-09T12:28:18.670Z,24.45
2022-12-09T12:31:06.720Z,18.13
2022-12-09T12:34:16.238Z,22.73
2022-12-09T12:36:59.559Z,20.33
2022-12-09T12:40:06.016Z,22.80
2022-12-09T12:42:41.352Z,21.95
2022-12-09T12:45:42.619Z,21.73
2022-12-09T12:48:39.195Z,20.00
2022-12-09T12:51:43.662Z,15.35
2022-12-09T12:54:44.019Z,19.52
2022-12-09T12:57:29.866Z,19.55
2022-12-09T13:00:08.269Z,20.75
2022-12-09T13:02:59.976Z,21.20
2022-12-09T13:05:37.316Z,19.13
2022-12-09T13:08:28.186Z,19.80
2022-12-09T13:10:58.299Z,21.35
2022-12-09T13:13:32.333Z,19.27
2022-12-09T13:16:08.900Z,17.80
2022-12-09T13:18:39.902Z,18.80
2022-12-09T13:21:09.915Z,16.55
2022-12-09T13:24:03.680Z,17.60
2022-12-09T13:26:55.647Z,17.92
2022-12-09T13:29:40.098Z,18.67
2022-12-09T13:32:32.394Z,19.13
2022-12-09T13:35:20.109Z,17.90
2022-12-09T13:37:50.247Z,16.45
2022-12-09T13:40:21.701Z,17.75
2022-12-09T13:43:04.090Z,18.20
2022-12-09T13:45:50.671Z,17.77
2022-12-09T13:48:19.191Z,19.92
2022-12-09T13:50:51.680Z,18.45
2022-12-09T13:53:20.059Z,20.50
2022-12-09T13:56:03.593Z,18.40
2022-12-09T13:58:53.282Z,17.98
2022-12-09T14:01:44.481Z,19.67
2022-12-09T14:04:16.839Z,21.15
2022-12-09T14:06:45.759Z,18.95
2022-12-09T14:09:40.255Z,18.77
2022-12-09T14:12:11.885Z,17.67
2022-12-09T14:14:51.287Z,17.60
2022-12-09T14:17:30.812Z,16.73
2022-12-09T14:20:20.301Z,21.70
2022-12-09T14:23:09.885Z,18.42
2022-12-09T14:25:38.404Z,19.80
2022-12-09T14:28:12.923Z,19.33
2022-12-09T14:31:04.758Z,18.02
2022-12-09T14:33:43.384Z,18.98
2022-12-09T14:36:14.333Z,20.33
2022-12-09T14:42:01.530Z,18.60
2022-12-09T14:45:03.437Z,17.83
2022-12-09T14:47:39.485Z,19.95
2022-12-09T14:50:20.228Z,18.65
2022-12-09T14:53:04.185Z,19.77
2022-12-09T14:55:37.838Z,20.83
2022-12-09T14:58:21.012Z,18.45
2022-12-09T15:01:02.757Z,16.13
2022-12-09T15:03:35.522Z,19.60
2022-12-09T15:06:18.834Z,18.98
2022-12-09T15:08:50.933Z,18.13
2022-12-09T15:11:22.223Z,16.85
2022-12-09T15:13:52.545Z,21.70
2022-12-09T15:16:24.097Z,15.82
2022-12-09T15:18:53.594Z,19.45
2022-12-09T15:21:32.422Z,19.67
2022-12-09T15:24:05.697Z,14.77
2022-12-09T15:26:35.197Z,18.33
2022-12-09T15:29:08.945Z,17.63
2022-12-09T15:31:49.615Z,17.52
2022-12-09T15:34:26.324Z,17.70
2022-12-09T15:37:00.720Z,21.70
2022-12-09T15:39:51.045Z,18.63
2022-12-09T15:42:26.081Z,18.45
2022-12-09T15:47:28.224Z,19.20
2022-12-09T15:50:15.738Z,20.77
2022-12-09T15:52:53.723Z,18.60
2022-12-09T15:55:46.004Z,17.00
2022-12-09T15:58:16.985Z,18.40
2022-12-09T16:00:48.852Z,19.92
2022-12-09T16:03:28.411Z,21.70
2022-12-09T16:05:59.948Z,22.25
2022-12-09T16:08:40.640Z,23.65
2022-12-09T16:11:09.521Z,23.73
2022-12-09T16:13:56.598Z,22.75
2022-12-09T16:16:40.858Z,22.58
2022-12-09T16:19:33.556Z,22.52
2022-12-09T16:22:08.662Z,23.17
2022-12-09T16:27:36.949Z,18.67
2022-12-09T16:30:14.728Z,24.55
2022-12-09T16:32:52.686Z,31.73
2022-12-09T16:35:27.256Z,25.25
2022-12-09T16:37:58.067Z,24.55
2022-12-09T16:40:25.947Z,24.80
2022-12-09T16:43:16.681Z,26.03
2022-12-09T16:46:17.892Z,22.07
2022-12-09T16:48:49.267Z,30.07
2022-12-09T16:51:22.545Z,30.10
2022-12-09T16:53:52.439Z,33.13
2022-12-09T16:56:28.883Z,26.13
2022-12-09T16:58:59.156Z,24.90
2022-12-09T17:01:41.353Z,23.70
2022-12-09T17:04:18.847Z,26.77
2022-12-09T17:06:46.914Z,25.57
2022-12-09T17:09:14.894Z,28.13
2022-12-09T17:11:48.570Z,23.57
2022-12-09T17:14:18.021Z,22.97
2022-12-09T17:16:50.781Z,21.80
2022-12-09T17:19:22.728Z,25.87
2022-12-09T17:21:52.115Z,24.10
2022-12-09T17:24:20.906Z,26.33
2022-12-09T17:26:48.799Z,27.27
2022-12-09T17:29:16.691Z,26.90
2022-12-09T17:31:44.736Z,26.70
2022-12-09T17:34:12.748Z,32.93
2022-12-09T17:36:40.617Z,28.90
2022-12-09T17:39:09.486Z,32.90
2022-12-09T17:41:37.549Z,41.57
2022-12-09T17:44:05.806Z,32.70
2022-12-09T17:46:34.499Z,37.63
2022-12-09T17:49:02.959Z,34.00
2022-12-09T17:51:35.978Z,38.27
2022-12-09T17:54:04.853Z,40.33
2022-12-09T17:56:32.841Z,36.77
2022-12-09T17:59:10.224Z,39.93
2022-12-09T18:01:41.046Z,37.53
2022-12-09T18:04:10.623Z,44.57
2022-12-09T18:06:43.104Z,41.10
2022-12-09T18:09:13.813Z,44.47
2022-12-09T18:11:42.566Z,39.87
2022-12-09T18:14:10.684Z,39.70
2022-12-09T18:16:38.861Z,39.77
2022-12-09T18:19:10.577Z,45.33
2022-12-09T18:21:38.530Z,43.77
2022-12-09T18:24:06.821Z,42.97
2022-12-09T18:26:41.618Z,45.87
2022-12-09T18:29:11.205Z,44.77
2022-12-09T18:31:40.237Z,41.77
2022-12-09T18:34:08.521Z,45.97
2022-12-09T18:36:36.593Z,48.43
2022-12-09T18:39:05.083Z,45.43
2022-12-09T18:41:33.589Z,45.90
2022-12-09T18:44:04.852Z,48.77
2022-12-09T18:46:36.532Z,46.80
2022-12-09T18:49:04.880Z,43.27
2022-12-09T18:51:33.205Z,51.70
2022-12-09T18:54:02.551Z,47.03
2022-12-09T18:56:30.663Z,46.87
2022-12-09T18:59:08.400Z,46.00
2022-12-09T19:01:41.084Z,42.83
2022-12-09T19:04:21.836Z,52.53
2022-12-09T19:06:51.628Z,55.13
2022-12-09T19:09:23.440Z,52.53
2022-12-09T19:11:52.602Z,51.57
2022-12-09T19:14:22.376Z,46.93
2022-12-09T19:16:51.561Z,51.50
2022-12-09T19:19:23.347Z,49.80
2022-12-09T19:21:53.015Z,51.23
2022-12-09T19:24:31.762Z,52.43
2022-12-09T19:27:07.282Z,54.17
2022-12-09T19:29:36.640Z,51.83
2022-12-09T19:32:36.544Z,53.33
2022-12-09T19:35:02.250Z,48.78
2022-12-09T19:37:32.675Z,54.63
2022-12-09T19:40:07.770Z,54.23
2022-12-09T19:42:40.109Z,50.10
2022-12-09T19:45:14.192Z,58.83
2022-12-09T19:47:48.627Z,53.63
2022-12-09T19:50:17.491Z,54.00
2022-12-09T19:52:47.105Z,53.03
2022-12-09T19:55:17.513Z,52.13
2022-12-09T19:57:46.091Z,47.80
2022-12-09T20:00:17.441Z,55.43
2022-12-09T20:02:45.890Z,50.03
2022-12-09T20:05:14.639Z,46.53
2022-12-09T20:07:43.155Z,49.63
2022-12-09T20:10:11.945Z,47.87
2022-12-09T20:12:41.749Z,51.03
2022-12-09T20:15:10.982Z,53.43
2022-12-09T20:17:39.537Z,48.80
2022-12-09T20:20:09.537Z,51.33
2022-12-09T20:22:50.008Z,41.63
2022-12-09T20:25:19.198Z,47.43
2022-12-09T20:27:51.067Z,48.83
2022-12-09T20:30:22.525Z,52.47
2022-12-09T20:32:52.106Z,46.97
2022-12-09T20:35:22.344Z,50.17
2022-12-09T20:37:50.967Z,50.87
2022-12-09T20:40:20.327Z,49.80
2022-12-09T20:42:52.088Z,56.03
2022-12-09T20:45:21.114Z,46.53
2022-12-09T20:47:49.706Z,48.67
2022-12-09T20:50:20.827Z,47.13
2022-12-09T20:52:55.462Z,46.10
2022-12-09T20:55:26.866Z,49.50
2022-12-09T20:57:55.278Z,52.50
2022-12-09T21:00:23.814Z,44.33
2022-12-09T21:02:53.004Z,45.03
2022-12-09T21:05:21.343Z,48.17
2022-12-09T21:07:49.752Z,49.73
2022-12-09T21:10:18.452Z,46.97
2022-12-09T21:12:46.853Z,44.00
2022-12-09T21:15:15.274Z,49.00
2022-12-09T21:17:46.819Z,45.67
2022-12-09T21:20:15.610Z,43.00
2022-12-09T21:22:44.110Z,52.30
2022-12-09T21:25:13.902Z,50.37
2022-12-09T21:27:45.541Z,51.83
2022-12-09T21:30:17.225Z,50.03
2022-12-09T21:32:45.719Z,50.10
2022-12-09T21:35:13.971Z,54.20
2022-12-09T21:37:42.271Z,54.57
2022-12-09T21:40:11.330Z,53.70
2022-12-09T21:42:39.799Z,49.00
2022-12-09T21:45:12.276Z,52.70
2022-12-09T21:47:46.548Z,50.70
2022-12-09T21:50:14.778Z,55.60
2022-12-09T21:52:45.133Z,46.83
2022-12-09T21:55:13.284Z,49.87
2022-12-09T21:57:41.757Z,58.03
2022-12-09T22:00:10.667Z,48.80
2022-12-09T22:02:39.100Z,47.37
2022-12-09T22:05:08.248Z,51.37
2022-12-09T22:07:36.617Z,47.83
2022-12-09T22:10:05.273Z,42.60
2022-12-09T22:12:38.191Z,54.20
2022-12-09T22:15:07.423Z,57.83
2022-12-09T22:17:37.691Z,45.10
2022-12-09T22:20:48.891Z,50.30
2022-12-09T22:22:56.166Z,42.23
2022-12-09T22:25:24.725Z,42.23
2022-12-09T22:27:53.206Z,41.30
2022-12-09T22:30:21.809Z,49.27
2022-12-09T22:32:51.139Z,47.00
2022-12-09T22:35:19.495Z,43.07
2022-12-09T22:37:48.764Z,47.07
2022-12-09T22:40:17.180Z,47.33
2022-12-09T22:42:45.410Z,45.33
2022-12-09T22:45:13.733Z,45.80
2022-12-09T22:47:42.211Z,54.80
2022-12-09T22:50:11.645Z,41.67
2022-12-09T22:52:41.155Z,49.33
2022-12-09T22:55:09.877Z,52.50
2022-12-09T22:57:38.694Z,47.10
2022-12-09T23:00:11.615Z,51.13
2022-12-09T23:02:41.010Z,45.93
2022-12-09T23:05:09.906Z,48.80
2022-12-09T23:07:44.493Z,44.63
2022-12-09T23:10:13.249Z,53.85
2022-12-09T23:12:41.626Z,45.17
2022-12-09T23:15:09.938Z,47.93
2022-12-09T23:17:37.912Z,48.00
2022-12-09T23:20:07.054Z,47.63
2022-12-09T23:22:35.345Z,51.17
2022-12-09T23:25:03.517Z,55.70
2022-12-09T23:27:31.422Z,52.70
2022-12-09T23:29:59.342Z,51.10
2022-12-09T23:32:27.476Z,51.00
2022-12-09T23:34:55.353Z,48.80
2022-12-09T23:37:23.446Z,51.93
2022-12-09T23:39:51.368Z,43.33
2022-12-09T23:42:20.735Z,50.10
2022-12-09T23:44:48.940Z,46.20
2022-12-09T23:47:16.922Z,44.90
2022-12-09T23:49:44.804Z,46.60
2022-12-09T23:52:12.729Z,51.57
2022-12-09T23:54:40.705Z,46.90
2022-12-09T23:57:08.540Z,45.10
2022-12-09T23:59:36.519Z,47.10
